createdAt,value
2022-10-16T00:01:43.245Z,5.72
2022-10-16T00:04:03.998Z,6.75
2022-10-16T00:06:25.316Z,5.07
2022-10-16T00:08:47.922Z,5.38
2022-10-16T00:11:29.476Z,5.35
2022-10-16T00:13:52.911Z,5.32
2022-10-16T00:16:14.230Z,5.47
2022-10-16T00:18:35.087Z,7.47
2022-10-16T00:23:22.806Z,7.55
2022-10-16T00:25:43.223Z,7.07
2022-10-16T00:28:03.839Z,6.00
2022-10-16T00:30:24.518Z,7.40
2022-10-16T00:32:44.871Z,7.03
2022-10-16T00:35:05.822Z,6.28
2022-10-16T00:37:26.547Z,5.47
2022-10-16T00:39:47.309Z,6.03
2022-10-16T00:42:07.994Z,5.57
2022-10-16T00:44:48.621Z,5.93
2022-10-16T00:47:18.276Z,5.35
2022-10-16T00:49:38.650Z,5.47
2022-10-16T00:51:59.567Z,6.93
2022-10-16T00:54:26.852Z,6.50
2022-10-16T00:56:47.888Z,6.68
2022-10-16T00:59:17.975Z,5.60
2022-10-16T01:01:38.651Z,5.95
2022-10-16T01:03:59.357Z,6.70
2022-10-16T01:06:49.772Z,6.10
2022-10-16T01:09:36.426Z,5.93
2022-10-16T01:11:58.169Z,6.10
2022-10-16T01:14:39.973Z,5.20
2022-10-16T01:17:07.603Z,5.72
2022-10-16T01:19:54.762Z,6.45
2022-10-16T01:22:16.307Z,6.30
2022-10-16T01:24:44.143Z,6.53
2022-10-16T01:27:28.267Z,6.40
2022-10-16T01:30:02.036Z,6.60
2022-10-16T01:32:41.378Z,7.40
2022-10-16T01:35:29.027Z,7.20
2022-10-16T01:38:13.507Z,5.65
2022-10-16T01:40:36.078Z,6.80
2022-10-16T01:43:13.535Z,6.72
2022-10-16T01:45:35.599Z,7.40
2022-10-16T01:47:57.070Z,7.13
2022-10-16T01:50:20.774Z,7.95
2022-10-16T01:52:45.543Z,8.25
2022-10-16T01:55:09.651Z,8.15
2022-10-16T01:57:32.340Z,8.30
2022-10-16T01:59:57.436Z,8.57
2022-10-16T02:02:20.559Z,9.63
2022-10-16T02:07:04.863Z,5.68
2022-10-16T02:09:25.409Z,5.25
2022-10-16T02:11:46.099Z,6.05
2022-10-16T02:14:08.105Z,7.50
2022-10-16T02:16:46.403Z,8.48
2022-10-16T02:19:07.726Z,10.35
2022-10-16T02:21:32.828Z,8.63
2022-10-16T02:24:30.201Z,7.47
2022-10-16T02:26:51.286Z,9.32
2022-10-16T02:29:15.795Z,6.85
2022-10-16T02:31:39.465Z,6.45
2022-10-16T02:34:01.394Z,8.95
2022-10-16T02:36:22.675Z,8.10
2022-10-16T02:38:43.363Z,8.65
2022-10-16T02:41:04.975Z,7.60
2022-10-16T02:43:27.274Z,7.68
2022-10-16T02:45:48.007Z,7.15
2022-10-16T02:48:08.935Z,8.05
2022-10-16T02:50:29.347Z,6.72
2022-10-16T02:52:50.056Z,7.38
2022-10-16T02:55:10.620Z,7.65
2022-10-16T02:57:32.211Z,6.85
2022-10-16T02:59:52.584Z,6.55
2022-10-16T03:02:13.202Z,7.95
2022-10-16T03:04:33.894Z,7.57
2022-10-16T03:06:54.511Z,6.72
2022-10-16T03:09:15.310Z,7.05
2022-10-16T03:11:35.930Z,7.85
2022-10-16T03:13:56.583Z,7.00
2022-10-16T03:16:17.170Z,7.60
2022-10-16T03:18:37.784Z,8.38
2022-10-16T03:20:59.388Z,10.25
2022-10-16T03:23:20.128Z,9.90
2022-10-16T03:25:42.686Z,10.40
2022-10-16T03:28:04.183Z,8.20
2022-10-16T03:30:24.751Z,7.50
2022-10-16T03:32:46.515Z,7.35
2022-10-16T03:35:07.435Z,6.60
2022-10-16T03:37:28.222Z,5.57
2022-10-16T03:39:49.003Z,7.63
2022-10-16T03:42:11.569Z,6.70
2022-10-16T03:44:33.158Z,7.95
2022-10-16T03:46:54.922Z,6.53
2022-10-16T03:49:15.485Z,6.88
2022-10-16T03:51:37.380Z,6.68
2022-10-16T03:53:58.179Z,5.85
2022-10-16T03:56:18.891Z,6.35
2022-10-16T03:58:39.695Z,6.70
2022-10-16T04:01:00.192Z,6.20
2022-10-16T04:03:20.874Z,6.15
2022-10-16T04:05:41.582Z,6.00
2022-10-16T04:08:02.810Z,7.00
2022-10-16T04:10:23.614Z,5.00
2022-10-16T04:12:44.040Z,7.97
2022-10-16T04:15:04.895Z,6.30
2022-10-16T04:17:25.663Z,6.35
2022-10-16T04:19:46.591Z,5.68
2022-10-16T04:22:07.369Z,6.03
2022-10-16T04:24:27.767Z,7.00
2022-10-16T04:26:48.324Z,6.03
2022-10-16T04:29:09.096Z,5.95
2022-10-16T04:31:29.727Z,5.75
2022-10-16T04:33:50.298Z,5.15
2022-10-16T04:36:12.216Z,4.47
2022-10-16T04:38:32.776Z,5.85
2022-10-16T04:40:54.000Z,5.15
2022-10-16T04:43:14.530Z,6.82
2022-10-16T04:45:36.146Z,5.70
2022-10-16T04:48:00.586Z,8.30
2022-10-16T04:50:21.007Z,6.35
2022-10-16T04:52:41.685Z,6.50
2022-10-16T04:55:03.661Z,6.55
2022-10-16T04:57:24.538Z,9.93
2022-10-16T04:59:45.176Z,8.98
2022-10-16T05:02:06.037Z,11.73
2022-10-16T05:04:27.627Z,12.27
2022-10-16T05:06:49.495Z,11.93
2022-10-16T05:09:11.951Z,15.20
2022-10-16T05:11:32.974Z,9.52
2022-10-16T05:13:55.834Z,8.05
2022-10-16T05:16:17.167Z,11.18
2022-10-16T05:18:37.506Z,7.30
2022-10-16T05:20:58.378Z,7.82
2022-10-16T05:23:19.812Z,8.00
2022-10-16T05:25:41.586Z,7.00
2022-10-16T05:28:02.020Z,6.53
2022-10-16T05:30:22.827Z,5.13
2022-10-16T05:32:46.804Z,4.65
2022-10-16T05:35:10.146Z,10.77
2022-10-16T05:37:34.203Z,5.50
2022-10-16T05:39:54.943Z,4.85
2022-10-16T05:42:15.917Z,4.47
2022-10-16T05:44:37.353Z,5.18
2022-10-16T05:46:58.128Z,5.97
2022-10-16T05:49:18.838Z,6.13
2022-10-16T05:51:39.460Z,5.18
2022-10-16T05:54:00.150Z,5.38
2022-10-16T05:56:21.771Z,5.40
2022-10-16T05:58:42.986Z,3.60
2022-10-16T06:01:10.566Z,4.85
2022-10-16T06:03:31.498Z,3.90
2022-10-16T06:05:52.693Z,3.78
2022-10-16T06:08:13.318Z,5.63
2022-10-16T06:10:33.890Z,5.53
2022-10-16T06:12:54.527Z,5.07
2022-10-16T06:15:15.166Z,4.72
2022-10-16T06:17:35.723Z,5.15
2022-10-16T06:19:56.293Z,4.68
2022-10-16T06:22:17.110Z,4.47
2022-10-16T06:24:38.670Z,9.32
2022-10-16T06:27:00.178Z,6.05
2022-10-16T06:29:20.706Z,12.48
2022-10-16T06:31:41.373Z,5.18
2022-10-16T06:34:02.198Z,5.53
2022-10-16T06:36:24.753Z,3.92
2022-10-16T06:38:46.211Z,4.03
2022-10-16T06:41:08.016Z,4.15
2022-10-16T06:43:34.054Z,5.13
2022-10-16T06:45:56.560Z,8.70
2022-10-16T06:48:16.863Z,6.75
2022-10-16T06:50:37.372Z,13.20
2022-10-16T06:52:57.884Z,6.43
2022-10-16T06:55:18.523Z,10.90
2022-10-16T06:57:38.876Z,6.30
2022-10-16T06:59:59.434Z,6.53
2022-10-16T07:02:19.924Z,5.03
2022-10-16T07:04:40.558Z,8.10
2022-10-16T07:07:04.440Z,7.90
2022-10-16T07:09:27.358Z,6.43
2022-10-16T07:11:47.910Z,7.97
2022-10-16T07:14:26.615Z,6.38
2022-10-16T07:16:48.592Z,4.32
2022-10-16T07:19:09.604Z,3.47
2022-10-16T07:21:36.856Z,5.72
2022-10-16T07:24:00.175Z,6.95
2022-10-16T07:28:41.037Z,5.05
2022-10-16T07:31:06.404Z,7.35
2022-10-16T07:33:27.096Z,4.97
2022-10-16T07:35:55.584Z,4.10
2022-10-16T07:38:15.959Z,3.30
2022-10-16T07:40:36.406Z,3.17
2022-10-16T07:42:57.076Z,3.00
2022-10-16T07:45:17.707Z,2.42
2022-10-16T07:47:38.292Z,2.63
2022-10-16T07:49:58.837Z,3.17
2022-10-16T07:52:19.471Z,3.15
2022-10-16T07:54:40.194Z,4.43
2022-10-16T07:57:02.769Z,4.15
2022-10-16T07:59:23.175Z,4.53
2022-10-16T08:01:43.589Z,3.63
2022-10-16T08:06:29.952Z,3.65
2022-10-16T08:08:50.847Z,4.50
2022-10-16T08:11:11.976Z,3.78
2022-10-16T08:13:33.263Z,3.55
2022-10-16T08:15:56.137Z,3.67
2022-10-16T08:18:17.078Z,3.50
2022-10-16T08:20:41.053Z,3.58
2022-10-16T08:23:02.226Z,3.90
2022-10-16T08:25:24.305Z,3.42
2022-10-16T08:27:45.675Z,2.53
2022-10-16T08:30:06.448Z,4.50
2022-10-16T08:32:29.300Z,2.92
2022-10-16T08:34:50.758Z,2.53
2022-10-16T08:37:14.318Z,3.13
2022-10-16T08:39:35.615Z,2.97
2022-10-16T08:42:14.252Z,2.95
2022-10-16T08:45:02.472Z,2.97
2022-10-16T08:47:59.049Z,1.95
2022-10-16T08:50:29.117Z,1.92
2022-10-16T08:52:49.559Z,2.15
2022-10-16T08:55:35.173Z,1.70
2022-10-16T08:57:55.917Z,1.65
2022-10-16T09:00:17.890Z,1.70
2022-10-16T09:02:53.620Z,1.50
2022-10-16T09:05:23.122Z,1.38
2022-10-16T09:08:13.222Z,1.30
2022-10-16T09:10:39.957Z,1.30
2022-10-16T09:13:20.367Z,1.15
2022-10-16T09:15:48.661Z,1.30
2022-10-16T09:18:21.207Z,1.40
2022-10-16T09:20:51.437Z,1.10
2022-10-16T09:23:26.191Z,1.10
2022-10-16T09:25:50.406Z,1.20
2022-10-16T09:28:11.377Z,1.20
2022-10-16T09:30:31.902Z,1.42
2022-10-16T09:32:55.268Z,1.50
2022-10-16T09:35:20.640Z,1.17
2022-10-16T09:37:43.460Z,1.00
2022-10-16T09:40:07.480Z,1.92
2022-10-16T09:42:37.677Z,1.23
2022-10-16T09:44:58.277Z,1.00
2022-10-16T09:47:29.927Z,1.42
2022-10-16T09:50:00.765Z,1.23
2022-10-16T09:52:22.186Z,1.30
2022-10-16T09:55:00.491Z,1.00
2022-10-16T09:57:22.062Z,1.27
2022-10-16T09:59:57.100Z,1.52
2022-10-16T10:02:20.576Z,1.33
2022-10-16T10:04:52.351Z,1.17
2022-10-16T10:07:43.955Z,1.20
2022-10-16T10:10:06.456Z,1.00
2022-10-16T10:12:29.202Z,1.00
2022-10-16T10:17:18.675Z,1.10
2022-10-16T10:20:07.000Z,1.00
2022-10-16T10:22:31.996Z,1.10
2022-10-16T10:25:16.658Z,0.90
2022-10-16T10:28:03.577Z,1.00
2022-10-16T10:30:33.260Z,1.00
2022-10-16T10:33:20.763Z,1.00
2022-10-16T10:35:58.013Z,2.90
2022-10-16T10:38:48.339Z,1.10
2022-10-16T10:41:15.215Z,0.90
2022-10-16T10:44:17.126Z,0.80
2022-10-16T10:46:45.923Z,1.25
2022-10-16T10:49:18.514Z,0.80
2022-10-16T10:51:51.593Z,0.90
2022-10-16T10:54:28.340Z,0.70
2022-10-16T10:56:55.057Z,0.70
2022-10-16T10:59:53.326Z,0.70
2022-10-16T11:02:41.240Z,0.70
2022-10-16T11:05:18.452Z,0.70
2022-10-16T11:07:51.903Z,0.65
2022-10-16T11:10:28.176Z,0.65
2022-10-16T11:12:58.080Z,0.70
2022-10-16T11:15:25.247Z,0.70
2022-10-16T11:18:08.660Z,0.70
2022-10-16T11:20:36.043Z,0.60
2022-10-16T11:23:08.272Z,0.63
2022-10-16T11:25:31.880Z,0.63
2022-10-16T11:28:10.548Z,0.60
2022-10-16T11:30:34.664Z,0.60
2022-10-16T11:33:01.947Z,0.60
2022-10-16T11:35:28.840Z,0.90
2022-10-16T11:37:52.572Z,0.70
2022-10-16T11:40:36.439Z,1.35
2022-10-16T11:43:11.430Z,0.70
2022-10-16T11:45:41.079Z,1.80
2022-10-16T11:48:36.658Z,0.70
2022-10-16T11:51:16.983Z,0.60
2022-10-16T11:53:52.117Z,0.70
2022-10-16T11:56:19.530Z,0.60
2022-10-16T11:59:03.781Z,0.65
2022-10-16T12:01:56.578Z,0.70
2022-10-16T12:04:46.431Z,0.70
2022-10-16T12:07:09.834Z,0.80
2022-10-16T12:09:37.601Z,0.70
2022-10-16T12:11:59.185Z,0.70
2022-10-16T12:14:21.637Z,0.70
2022-10-16T12:17:23.397Z,1.48
2022-10-16T12:19:43.940Z,0.70
2022-10-16T12:22:05.152Z,0.70
2022-10-16T12:24:39.551Z,0.60
2022-10-16T12:27:00.554Z,0.70
2022-10-16T12:29:43.382Z,0.70
2022-10-16T12:35:04.551Z,0.77
2022-10-16T12:37:28.784Z,0.90
2022-10-16T12:39:50.473Z,0.70
2022-10-16T12:42:30.987Z,0.80
2022-10-16T12:44:51.556Z,0.70
2022-10-16T12:47:22.536Z,0.80
2022-10-16T12:49:53.167Z,0.70
2022-10-16T12:52:38.059Z,0.70
2022-10-16T12:55:02.683Z,0.70
2022-10-16T12:57:38.300Z,0.70
2022-10-16T13:00:22.026Z,0.80
2022-10-16T13:03:01.630Z,0.70
2022-10-16T13:05:34.188Z,0.80
2022-10-16T13:08:12.807Z,0.70
2022-10-16T13:11:16.615Z,0.73
2022-10-16T13:13:58.308Z,0.80
2022-10-16T13:16:40.132Z,0.73
2022-10-16T13:19:03.553Z,0.70
2022-10-16T13:21:27.289Z,0.80
2022-10-16T13:24:12.151Z,0.80
2022-10-16T13:27:12.616Z,0.60
2022-10-16T13:29:33.805Z,0.70
2022-10-16T13:31:54.485Z,0.80
2022-10-16T13:34:18.979Z,0.70
2022-10-16T13:36:52.491Z,0.70
2022-10-16T13:39:30.869Z,0.70
2022-10-16T13:42:06.478Z,0.80
2022-10-16T13:44:36.588Z,0.70
2022-10-16T13:47:03.219Z,0.60
2022-10-16T13:49:23.593Z,0.90
2022-10-16T13:51:56.674Z,0.70
2022-10-16T13:54:17.023Z,0.60
2022-10-16T13:56:37.407Z,0.70
2022-10-16T13:59:25.957Z,0.60
2022-10-16T14:01:46.484Z,0.70
2022-10-16T14:04:09.965Z,0.80
2022-10-16T14:06:30.899Z,0.80
2022-10-16T14:09:17.244Z,0.70
2022-10-16T14:11:50.422Z,0.80
2022-10-16T14:14:13.602Z,0.68
2022-10-16T14:16:35.211Z,0.70
2022-10-16T14:19:00.373Z,0.60
2022-10-16T14:21:21.108Z,0.70
2022-10-16T14:23:44.727Z,0.70
2022-10-16T14:26:11.340Z,0.70
2022-10-16T14:28:32.043Z,0.80
2022-10-16T14:30:57.373Z,0.70
2022-10-16T14:33:31.129Z,0.70
2022-10-16T14:36:19.648Z,0.85
2022-10-16T14:38:42.030Z,0.77
2022-10-16T14:41:04.198Z,0.70
2022-10-16T14:43:37.465Z,0.80
2022-10-16T14:45:58.489Z,0.77
2022-10-16T14:48:20.810Z,0.80
2022-10-16T14:50:41.554Z,0.88
2022-10-16T14:53:02.561Z,0.90
2022-10-16T14:57:46.453Z,0.90
2022-10-16T15:00:21.331Z,0.90
2022-10-16T15:02:41.836Z,1.35
2022-10-16T15:05:33.169Z,0.90
2022-10-16T15:07:56.124Z,0.80
2022-10-16T15:10:18.983Z,0.82
2022-10-16T15:12:40.938Z,1.10
2022-10-16T15:15:02.714Z,0.70
2022-10-16T15:17:23.172Z,0.93
2022-10-16T15:19:44.533Z,0.73
2022-10-16T15:22:05.165Z,0.80
2022-10-16T15:24:25.774Z,0.80
2022-10-16T15:26:50.255Z,0.80
2022-10-16T15:29:10.840Z,0.70
2022-10-16T15:31:31.779Z,0.80
2022-10-16T15:33:56.951Z,0.88
2022-10-16T15:36:17.666Z,0.80
2022-10-16T15:38:38.059Z,0.73
2022-10-16T15:40:58.928Z,0.80
2022-10-16T15:43:19.805Z,0.80
2022-10-16T15:45:40.756Z,0.80
2022-10-16T15:48:02.658Z,0.80
2022-10-16T15:50:22.976Z,0.80
2022-10-16T15:52:43.614Z,0.90
2022-10-16T15:55:04.382Z,0.90
2022-10-16T15:57:25.293Z,1.00
2022-10-16T15:59:45.926Z,1.02
2022-10-16T16:02:06.749Z,0.90
2022-10-16T16:04:43.359Z,0.90
2022-10-16T16:07:08.271Z,1.27
2022-10-16T16:09:32.755Z,0.90
2022-10-16T16:11:53.476Z,0.88
2022-10-16T16:14:14.923Z,0.90
2022-10-16T16:16:39.111Z,0.90
2022-10-16T16:19:00.507Z,1.10
2022-10-16T16:21:22.190Z,2.72
2022-10-16T16:23:43.550Z,11.23
2022-10-16T16:26:12.741Z,8.07
2022-10-16T16:28:33.631Z,5.93
2022-10-16T16:30:54.559Z,3.15
2022-10-16T16:33:15.258Z,1.58
2022-10-16T16:35:35.738Z,1.67
2022-10-16T16:37:56.330Z,2.17
2022-10-16T16:40:16.939Z,5.57
2022-10-16T16:42:37.824Z,6.22
2022-10-16T16:44:59.213Z,4.80
2022-10-16T16:47:22.027Z,3.25
2022-10-16T16:49:43.537Z,3.45
2022-10-16T16:52:05.090Z,2.28
2022-10-16T16:54:25.878Z,3.28
2022-10-16T16:56:46.912Z,3.88
2022-10-16T16:59:07.406Z,3.15
2022-10-16T17:01:29.216Z,3.20
2022-10-16T17:03:53.508Z,3.83
2022-10-16T17:06:20.324Z,4.55
2022-10-16T17:08:43.049Z,2.72
2022-10-16T17:11:28.354Z,1.73
2022-10-16T17:13:55.520Z,2.20
2022-10-16T17:16:18.837Z,1.70
2022-10-16T17:18:41.125Z,1.55
2022-10-16T17:21:05.553Z,1.58
2022-10-16T17:23:27.236Z,1.55
2022-10-16T17:25:47.705Z,1.60
2022-10-16T17:28:09.709Z,1.67
2022-10-16T17:30:30.648Z,2.58
2022-10-16T17:32:50.969Z,2.50
2022-10-16T17:35:13.320Z,1.90
2022-10-16T17:37:34.034Z,3.22
2022-10-16T17:39:55.452Z,2.10
2022-10-16T17:42:17.205Z,2.78
2022-10-16T17:44:38.048Z,1.92
2022-10-16T17:46:58.596Z,6.93
2022-10-16T17:49:20.435Z,7.78
2022-10-16T17:51:41.013Z,10.73
2022-10-16T17:54:02.466Z,9.40
2022-10-16T17:56:24.217Z,8.63
2022-10-16T17:58:47.683Z,5.68
2022-10-16T18:01:27.371Z,3.75
2022-10-16T18:03:54.222Z,2.03
2022-10-16T18:06:16.856Z,2.28
2022-10-16T18:08:40.878Z,1.77
2022-10-16T18:11:01.435Z,3.58
2022-10-16T18:13:23.604Z,3.58
2022-10-16T18:15:45.298Z,3.58
2022-10-16T18:18:06.406Z,2.38
2022-10-16T18:20:26.740Z,3.28
2022-10-16T18:22:47.400Z,2.38
2022-10-16T18:25:08.027Z,3.00
2022-10-16T18:27:28.656Z,3.28
2022-10-16T18:29:49.628Z,4.00
2022-10-16T18:32:09.977Z,4.03
2022-10-16T18:34:30.576Z,9.27
2022-10-16T18:36:54.195Z,8.45
2022-10-16T18:39:18.484Z,3.65
2022-10-16T18:41:44.878Z,2.72
2022-10-16T18:44:07.454Z,3.08
2022-10-16T18:46:29.082Z,4.88
2022-10-16T18:48:51.076Z,3.22
2022-10-16T18:51:16.789Z,2.70
2022-10-16T18:53:38.770Z,2.30
2022-10-16T18:55:59.967Z,2.80
2022-10-16T18:58:20.577Z,3.55
2022-10-16T19:00:41.292Z,6.75
2022-10-16T19:03:02.613Z,10.55
2022-10-16T19:05:25.351Z,13.05
2022-10-16T19:07:48.281Z,8.57
2022-10-16T19:10:08.850Z,5.97
2022-10-16T19:12:29.208Z,5.95
2022-10-16T19:14:50.610Z,4.47
2022-10-16T19:17:11.193Z,4.45
2022-10-16T19:19:31.560Z,3.70
2022-10-16T19:21:58.117Z,3.05
2022-10-16T19:24:19.629Z,3.40
2022-10-16T19:26:44.414Z,4.90
2022-10-16T19:29:07.238Z,3.83
2022-10-16T19:31:29.665Z,3.00
2022-10-16T19:33:55.237Z,2.78
2022-10-16T19:36:17.875Z,2.60
2022-10-16T19:38:40.770Z,2.30
2022-10-16T19:43:33.267Z,2.70
2022-10-16T19:45:54.813Z,3.05
2022-10-16T19:48:18.439Z,3.45
2022-10-16T19:50:46.072Z,4.55
2022-10-16T19:53:06.492Z,3.90
2022-10-16T19:55:50.359Z,3.72
2022-10-16T19:58:39.239Z,2.75
2022-10-16T20:01:27.304Z,3.35
2022-10-16T20:34:09.402Z,5.28
2022-10-16T20:36:30.827Z,3.80
2022-10-16T20:38:52.003Z,3.97
2022-10-16T20:41:13.045Z,3.38
2022-10-16T20:43:33.450Z,3.78
2022-10-16T20:46:10.106Z,6.68
2022-10-16T20:48:30.684Z,6.80
2022-10-16T20:50:51.198Z,5.35
2022-10-16T20:53:11.898Z,6.10
2022-10-16T20:55:36.088Z,5.45
2022-10-16T20:57:56.805Z,4.72
2022-10-16T21:00:18.429Z,5.13
2022-10-16T21:02:38.931Z,4.95
2022-10-16T21:04:59.404Z,9.02
2022-10-16T21:07:20.107Z,8.45
2022-10-16T21:09:40.730Z,7.43
2022-10-16T21:12:01.359Z,5.60
2022-10-16T21:14:22.191Z,4.82
2022-10-16T21:16:42.572Z,4.38
2022-10-16T21:19:03.711Z,4.97
2022-10-16T21:21:27.138Z,4.68
2022-10-16T21:23:49.127Z,4.32
2022-10-16T21:26:09.428Z,4.30
2022-10-16T21:28:33.311Z,4.72
2022-10-16T21:30:54.115Z,5.05
2022-10-16T21:33:14.417Z,8.13
2022-10-16T21:35:35.084Z,6.82
2022-10-16T21:37:56.442Z,9.38
2022-10-16T21:40:16.966Z,10.95
2022-10-16T21:42:37.179Z,8.40
2022-10-16T21:44:57.857Z,6.00
2022-10-16T21:47:18.261Z,5.03
2022-10-16T21:49:38.490Z,4.70
2022-10-16T21:51:59.129Z,7.43
2022-10-16T21:54:23.108Z,5.70
2022-10-16T21:56:43.969Z,6.22
2022-10-16T21:59:04.878Z,5.60
2022-10-16T22:01:26.439Z,5.57
2022-10-16T22:03:47.938Z,5.43
2022-10-16T22:06:10.252Z,4.85
2022-10-16T22:08:33.070Z,4.82
2022-10-16T22:10:53.596Z,4.13
2022-10-16T22:13:14.723Z,4.97
2022-10-16T22:15:35.314Z,4.55
2022-10-16T22:17:55.978Z,4.65
2022-10-16T22:20:16.746Z,5.68
2022-10-16T22:22:37.107Z,4.10
2022-10-16T22:24:57.747Z,4.20
2022-10-16T22:27:18.372Z,4.93
2022-10-16T22:29:38.886Z,4.07
2022-10-16T22:31:59.415Z,4.85
2022-10-16T22:34:20.391Z,4.50
2022-10-16T22:36:40.973Z,5.55
2022-10-16T22:39:02.105Z,5.53
2022-10-16T22:41:24.652Z,5.97
2022-10-16T22:46:11.182Z,6.20
2022-10-16T22:48:31.796Z,5.47
2022-10-16T22:50:52.348Z,4.93
2022-10-16T22:53:12.964Z,6.32
2022-10-16T22:55:33.505Z,6.07
2022-10-16T22:57:56.885Z,8.15
2022-10-16T23:00:20.045Z,7.45
2022-10-16T23:05:00.576Z,7.35
2022-10-16T23:07:21.176Z,5.32
2022-10-16T23:09:41.647Z,6.35
2022-10-16T23:12:02.348Z,6.45
2022-10-16T23:14:22.951Z,4.88
2022-10-16T23:16:43.300Z,6.07
2022-10-16T23:19:04.658Z,6.47
2022-10-16T23:21:26.894Z,6.70
2022-10-16T23:23:47.855Z,6.17
2022-10-16T23:26:14.199Z,6.13
2022-10-16T23:28:34.669Z,6.15
2022-10-16T23:30:55.133Z,5.70
2022-10-16T23:33:15.301Z,5.63
2022-10-16T23:35:40.162Z,5.28
2022-10-16T23:38:00.954Z,5.28
2022-10-16T23:40:21.637Z,4.55
2022-10-16T23:42:42.065Z,5.10
2022-10-16T23:45:02.273Z,4.75
2022-10-16T23:47:22.913Z,4.43
2022-10-16T23:49:43.227Z,4.47
2022-10-16T23:52:04.027Z,5.22
2022-10-16T23:54:24.342Z,4.85
2022-10-16T23:56:44.761Z,4.95
2022-10-16T23:59:05.178Z,5.40
